createdAt,value
2019-02-05T00:02:04.598Z,10.63
2019-02-05T00:04:34.806Z,5.40
2019-02-05T00:07:04.918Z,7.55
2019-02-05T00:09:35.146Z,8.40
2019-02-05T00:12:05.863Z,9.05
2019-02-05T00:14:36.035Z,12.60
2019-02-05T00:17:06.152Z,7.58
2019-02-05T00:19:36.377Z,8.25
2019-02-05T00:22:06.505Z,8.15
2019-02-05T00:24:36.639Z,5.97
2019-02-05T00:27:06.810Z,7.50
2019-02-05T00:29:37.027Z,9.63
2019-02-05T00:32:07.140Z,9.25
2019-02-05T00:34:37.271Z,5.78
2019-02-05T00:37:07.360Z,5.28
2019-02-05T00:39:37.827Z,8.03
2019-02-05T00:42:07.983Z,8.95
2019-02-05T00:44:38.149Z,8.88
2019-02-05T00:47:08.262Z,7.58
2019-02-05T00:49:38.419Z,8.48
2019-02-05T00:52:08.641Z,6.97
2019-02-05T00:54:38.783Z,6.87
2019-02-05T00:57:08.901Z,6.53
2019-02-05T00:59:39.034Z,7.25
2019-02-05T01:02:09.137Z,7.70
2019-02-05T01:04:39.381Z,6.45
2019-02-05T01:07:09.858Z,6.17
2019-02-05T01:09:40.229Z,6.40
2019-02-05T01:12:10.375Z,8.03
2019-02-05T01:14:40.501Z,10.35
2019-02-05T01:17:10.596Z,10.85
2019-02-05T01:19:40.859Z,6.10
2019-02-05T01:22:11.001Z,6.80
2019-02-05T01:24:41.151Z,11.12
2019-02-05T01:27:11.245Z,12.40
2019-02-05T01:29:41.385Z,10.63
2019-02-05T01:32:11.498Z,10.08
2019-02-05T01:34:41.939Z,13.50
2019-02-05T01:37:12.042Z,9.10
2019-02-05T01:39:42.176Z,10.00
2019-02-05T01:42:12.309Z,11.43
2019-02-05T01:44:43.240Z,8.35
2019-02-05T01:47:13.509Z,11.20
2019-02-05T01:49:43.676Z,9.88
2019-02-05T01:52:13.806Z,8.70
2019-02-05T01:54:43.943Z,6.65
2019-02-05T01:57:14.128Z,10.80
2019-02-05T01:59:44.363Z,9.28
2019-02-05T02:02:15.853Z,10.75
2019-02-05T02:04:46.031Z,11.97
2019-02-05T02:07:16.151Z,10.48
2019-02-05T02:09:46.305Z,7.75
2019-02-05T02:12:16.466Z,9.15
2019-02-05T02:14:46.644Z,7.28
2019-02-05T02:17:16.775Z,9.23
2019-02-05T02:19:46.859Z,9.38
2019-02-05T02:22:16.957Z,11.93
2019-02-05T02:24:47.087Z,7.50
2019-02-05T02:27:17.187Z,8.43
2019-02-05T02:29:47.363Z,6.78
2019-02-05T02:32:17.456Z,7.15
2019-02-05T02:34:47.577Z,9.25
2019-02-05T02:37:17.787Z,8.60
2019-02-05T02:39:47.919Z,7.95
2019-02-05T02:42:18.027Z,8.50
2019-02-05T02:44:48.524Z,8.18
2019-02-05T02:47:18.598Z,7.60
2019-02-05T02:49:48.758Z,8.18
2019-02-05T02:52:18.844Z,7.50
2019-02-05T02:54:48.974Z,12.70
2019-02-05T02:57:19.117Z,10.35
2019-02-05T02:59:49.249Z,10.40
2019-02-05T03:02:19.371Z,5.75
2019-02-05T03:04:49.570Z,9.85
2019-02-05T03:07:19.689Z,6.83
2019-02-05T03:09:49.809Z,10.38
2019-02-05T03:12:20.989Z,10.95
2019-02-05T03:14:51.131Z,6.12
2019-02-05T03:17:21.275Z,7.17
2019-02-05T03:19:51.421Z,10.65
2019-02-05T03:22:21.534Z,7.22
2019-02-05T03:24:51.692Z,11.03
2019-02-05T03:27:21.803Z,9.63
2019-02-05T03:29:52.311Z,7.78
2019-02-05T03:32:22.424Z,7.35
2019-02-05T03:34:52.549Z,8.25
2019-02-05T03:37:23.775Z,10.03
2019-02-05T03:39:53.899Z,7.87
2019-02-05T03:42:23.987Z,8.13
2019-02-05T03:44:54.507Z,11.18
2019-02-05T03:47:24.600Z,8.08
2019-02-05T03:49:54.739Z,7.97
2019-02-05T03:52:29.136Z,7.12
2019-02-05T03:55:27.770Z,9.43
2019-02-05T03:58:25.384Z,9.48
2019-02-05T04:01:27.280Z,9.63
2019-02-05T04:04:33.637Z,7.90
2019-02-05T04:07:45.825Z,7.37
2019-02-05T04:10:59.116Z,10.90
2019-02-05T04:14:13.693Z,11.28
2019-02-05T04:17:25.282Z,7.08
2019-02-05T04:20:35.429Z,8.00
2019-02-05T04:23:33.516Z,8.48
2019-02-05T04:26:26.293Z,9.90
2019-02-05T04:29:44.553Z,9.90
2019-02-05T04:32:49.726Z,12.68
2019-02-05T04:36:19.386Z,7.55
2019-02-05T04:39:27.579Z,9.55
2019-02-05T04:42:48.162Z,11.38
2019-02-05T04:45:43.339Z,10.53
2019-02-05T04:49:28.871Z,9.20
2019-02-05T04:52:51.171Z,9.88
2019-02-05T04:55:51.379Z,8.88
2019-02-05T04:58:48.615Z,10.28
2019-02-05T05:01:42.429Z,6.83
2019-02-05T05:04:34.785Z,11.43
2019-02-05T05:07:41.011Z,7.17
2019-02-05T05:10:11.112Z,10.38
2019-02-05T05:12:41.269Z,12.45
2019-02-05T05:15:11.947Z,8.18
2019-02-05T05:17:42.184Z,10.10
2019-02-05T05:20:12.898Z,10.72
2019-02-05T05:22:43.036Z,11.33
2019-02-05T05:25:13.129Z,10.28
2019-02-05T05:27:43.312Z,7.53
2019-02-05T05:30:18.665Z,10.03
2019-02-05T05:32:48.806Z,8.53
2019-02-05T05:35:18.895Z,7.83
2019-02-05T05:37:49.444Z,7.70
2019-02-05T05:40:19.560Z,10.05
2019-02-05T05:42:49.701Z,8.85
2019-02-05T05:45:19.826Z,9.65
2019-02-05T05:47:49.953Z,10.65
2019-02-05T05:50:21.270Z,10.80
2019-02-05T05:52:52.967Z,12.05
2019-02-05T05:55:23.055Z,8.28
2019-02-05T05:57:53.235Z,8.60
2019-02-05T06:00:23.340Z,8.80
2019-02-05T06:02:54.545Z,6.65
2019-02-05T06:05:24.635Z,10.72
2019-02-05T06:07:54.987Z,8.48
2019-02-05T06:10:25.055Z,8.28
2019-02-05T06:12:55.287Z,10.08
2019-02-05T06:15:26.465Z,11.08
2019-02-05T06:17:56.585Z,8.30
2019-02-05T06:20:26.673Z,9.90
2019-02-05T06:22:56.928Z,10.08
2019-02-05T06:25:27.028Z,8.68
2019-02-05T06:27:57.194Z,8.23
2019-02-05T06:30:27.311Z,12.37
2019-02-05T06:32:57.716Z,7.53
2019-02-05T06:35:27.923Z,8.93
2019-02-05T06:37:59.534Z,12.58
2019-02-05T06:40:29.620Z,9.80
2019-02-05T06:42:59.757Z,11.50
2019-02-05T06:45:29.785Z,17.60
2019-02-05T06:47:59.934Z,12.20
2019-02-05T06:50:30.035Z,16.95
2019-02-05T06:53:00.165Z,18.32
2019-02-05T06:55:30.257Z,11.12
2019-02-05T06:58:00.517Z,13.65
2019-02-05T07:00:30.687Z,19.42
2019-02-05T07:03:00.830Z,13.75
2019-02-05T07:05:30.971Z,11.35
2019-02-05T07:08:01.143Z,13.88
2019-02-05T07:10:31.248Z,11.28
2019-02-05T07:13:01.460Z,15.40
2019-02-05T07:15:31.585Z,10.32
2019-02-05T07:18:01.923Z,10.75
2019-02-05T07:20:32.039Z,10.68
2019-02-05T07:23:02.195Z,10.10
2019-02-05T07:25:32.340Z,10.10
2019-02-05T07:28:02.485Z,10.10
2019-02-05T07:30:32.742Z,9.48
2019-02-05T07:33:02.908Z,10.00
2019-02-05T07:35:33.082Z,11.93
2019-02-05T07:38:03.348Z,12.13
2019-02-05T07:40:33.603Z,11.55
2019-02-05T07:43:03.839Z,9.50
2019-02-05T07:45:33.989Z,12.13
2019-02-05T07:48:04.147Z,10.10
2019-02-05T07:50:34.289Z,9.23
2019-02-05T07:53:04.921Z,12.93
2019-02-05T07:55:35.115Z,9.10
2019-02-05T07:58:05.383Z,10.05
2019-02-05T08:00:35.610Z,12.65
2019-02-05T08:03:05.995Z,10.72
2019-02-05T08:05:36.106Z,11.53
2019-02-05T08:08:07.246Z,9.40
2019-02-05T08:10:37.392Z,9.38
2019-02-05T08:13:07.637Z,10.35
2019-02-05T08:15:37.781Z,10.60
2019-02-05T08:18:07.953Z,10.30
2019-02-05T08:20:38.143Z,9.98
2019-02-05T08:23:08.300Z,15.48
2019-02-05T08:25:38.438Z,12.45
2019-02-05T08:28:08.602Z,13.53
2019-02-05T08:30:41.608Z,15.98
2019-02-05T08:33:11.739Z,14.05
2019-02-05T08:35:41.842Z,10.50
2019-02-05T08:38:12.455Z,15.83
2019-02-05T08:40:42.582Z,11.85
2019-02-05T08:43:12.759Z,9.63
2019-02-05T08:45:42.875Z,9.78
2019-02-05T08:48:14.169Z,10.50
2019-02-05T08:50:44.304Z,9.35
2019-02-05T08:53:14.457Z,11.15
2019-02-05T08:55:44.575Z,12.30
2019-02-05T08:58:14.791Z,9.63
2019-02-05T09:00:44.966Z,9.85
2019-02-05T09:03:15.235Z,11.43
2019-02-05T09:05:45.338Z,9.10
2019-02-05T09:08:16.673Z,8.90
2019-02-05T09:10:46.859Z,9.98
2019-02-05T09:13:17.096Z,8.85
2019-02-05T09:15:47.319Z,11.08
2019-02-05T09:18:17.466Z,10.70
2019-02-05T09:20:47.671Z,8.80
2019-02-05T09:23:17.790Z,10.13
2019-02-05T09:25:47.999Z,11.20
2019-02-05T09:28:18.332Z,12.28
2019-02-05T09:30:48.515Z,10.18
2019-02-05T09:33:18.635Z,13.28
2019-02-05T09:35:48.815Z,10.10
2019-02-05T09:38:18.941Z,10.63
2019-02-05T09:40:49.114Z,14.07
2019-02-05T09:43:19.568Z,8.13
2019-02-05T09:45:49.760Z,11.88
2019-02-05T09:48:30.412Z,9.28
2019-02-05T09:51:00.601Z,11.43
2019-02-05T09:53:30.729Z,9.38
2019-02-05T09:56:01.212Z,11.90
2019-02-05T09:58:31.274Z,9.73
2019-02-05T10:01:01.449Z,12.45
2019-02-05T10:03:32.680Z,11.78
2019-02-05T10:06:02.999Z,9.70
2019-02-05T10:08:33.138Z,9.85
2019-02-05T10:11:03.609Z,13.55
2019-02-05T10:13:33.768Z,11.97
2019-02-05T10:16:04.086Z,10.35
2019-02-05T10:18:34.226Z,11.53
2019-02-05T10:21:05.819Z,9.40
2019-02-05T10:23:35.981Z,12.03
2019-02-05T10:26:06.547Z,10.18
2019-02-05T10:28:36.711Z,11.38
2019-02-05T10:31:06.885Z,10.95
2019-02-05T10:33:37.030Z,14.05
2019-02-05T10:36:07.307Z,12.98
2019-02-05T10:38:37.529Z,11.00
2019-02-05T10:41:08.043Z,12.10
2019-02-05T10:43:38.263Z,11.57
2019-02-05T10:46:08.885Z,13.53
2019-02-05T10:48:39.115Z,10.00
2019-02-05T10:51:09.259Z,11.00
2019-02-05T10:53:39.439Z,13.68
2019-02-05T10:56:10.014Z,11.25
2019-02-05T10:58:40.197Z,14.50
2019-02-05T11:01:10.333Z,14.13
2019-02-05T11:03:40.503Z,12.03
2019-02-05T11:06:10.701Z,13.85
2019-02-05T11:08:40.945Z,10.93
2019-02-05T11:11:11.285Z,11.83
2019-02-05T11:13:41.550Z,13.08
2019-02-05T11:16:11.696Z,13.80
2019-02-05T11:18:41.884Z,14.25
2019-02-05T11:21:12.013Z,15.90
2019-02-05T11:23:42.176Z,15.70
2019-02-05T11:26:12.325Z,15.68
2019-02-05T11:28:42.480Z,13.00
2019-02-05T11:31:12.589Z,15.80
2019-02-05T11:33:42.769Z,14.53
2019-02-05T11:36:12.970Z,15.78
2019-02-05T11:38:43.282Z,16.50
2019-02-05T11:41:13.785Z,15.43
2019-02-05T11:43:44.093Z,18.32
2019-02-05T11:46:14.215Z,16.97
2019-02-05T11:48:44.380Z,14.83
2019-02-05T11:51:14.515Z,16.97
2019-02-05T11:53:44.591Z,14.87
2019-02-05T11:56:14.753Z,16.27
2019-02-05T11:58:45.181Z,20.88
2019-02-05T12:01:22.521Z,19.85
2019-02-05T12:03:52.695Z,20.52
2019-02-05T12:06:22.827Z,17.45
2019-02-05T12:08:52.993Z,18.50
2019-02-05T12:11:23.441Z,19.05
2019-02-05T12:13:53.620Z,14.75
2019-02-05T12:16:23.724Z,21.12
2019-02-05T12:18:53.929Z,19.77
2019-02-05T12:21:24.061Z,16.35
2019-02-05T12:23:54.234Z,20.10
2019-02-05T12:26:24.359Z,16.93
2019-02-05T12:28:54.865Z,17.42
2019-02-05T12:31:24.986Z,18.15
2019-02-05T12:33:55.226Z,20.85
2019-02-05T12:36:25.375Z,20.35
2019-02-05T12:38:55.560Z,19.95
2019-02-05T12:41:25.693Z,20.40
2019-02-05T12:43:55.914Z,20.65
2019-02-05T12:46:25.956Z,18.23
2019-02-05T12:48:56.041Z,17.75
2019-02-05T12:51:26.178Z,16.17
2019-02-05T12:53:56.709Z,17.40
2019-02-05T12:56:26.855Z,21.27
2019-02-05T12:58:57.126Z,18.45
2019-02-05T13:01:27.260Z,20.85
2019-02-05T13:03:58.017Z,18.30
2019-02-05T13:06:29.255Z,17.10
2019-02-05T13:08:59.463Z,20.10
2019-02-05T13:11:30.011Z,20.82
2019-02-05T13:14:00.313Z,18.85
2019-02-05T13:16:30.454Z,21.17
2019-02-05T13:19:00.636Z,19.10
2019-02-05T13:21:30.765Z,19.67
2019-02-05T13:24:00.939Z,21.27
2019-02-05T13:26:31.052Z,24.70
2019-02-05T13:29:01.316Z,19.55
2019-02-05T13:31:31.495Z,19.90
2019-02-05T13:34:01.669Z,27.27
2019-02-05T13:36:31.852Z,21.25
2019-02-05T13:39:02.343Z,20.30
2019-02-05T13:41:33.654Z,19.75
2019-02-05T13:44:03.871Z,26.52
2019-02-05T13:46:34.030Z,27.67
2019-02-05T13:49:04.237Z,20.60
2019-02-05T13:51:35.481Z,24.10
2019-02-05T13:54:05.763Z,23.05
2019-02-05T13:56:35.882Z,24.57
2019-02-05T13:59:06.303Z,22.58
2019-02-05T14:01:36.475Z,24.45
2019-02-05T14:04:06.685Z,28.70
2019-02-05T14:06:37.067Z,24.47
2019-02-05T14:09:11.364Z,29.80
2019-02-05T14:11:41.493Z,24.37
2019-02-05T14:14:11.755Z,33.42
2019-02-05T14:16:41.901Z,28.90
2019-02-05T14:19:12.051Z,26.33
2019-02-05T14:21:42.209Z,29.63
2019-02-05T14:24:12.409Z,27.07
2019-02-05T14:26:42.546Z,26.87
2019-02-05T14:29:12.751Z,26.57
2019-02-05T14:31:42.904Z,28.70
2019-02-05T14:34:13.558Z,26.80
2019-02-05T14:36:44.963Z,26.07
2019-02-05T14:39:15.191Z,27.75
2019-02-05T14:41:45.329Z,32.38
2019-02-05T14:44:15.495Z,27.77
2019-02-05T14:46:45.641Z,24.05
2019-02-05T14:49:15.835Z,26.42
2019-02-05T14:51:45.989Z,24.63
2019-02-05T14:54:16.164Z,22.17
2019-02-05T14:56:46.323Z,24.25
2019-02-05T14:59:16.514Z,23.62
2019-02-05T15:01:47.026Z,23.00
2019-02-05T15:04:18.417Z,23.18
2019-02-05T15:06:49.652Z,21.35
2019-02-05T15:09:19.869Z,24.30
2019-02-05T15:11:50.033Z,22.62
2019-02-05T15:14:20.194Z,20.65
2019-02-05T15:16:50.330Z,21.77
2019-02-05T15:19:20.524Z,24.57
2019-02-05T15:21:50.680Z,22.02
2019-02-05T15:24:20.889Z,23.27
2019-02-05T15:26:51.037Z,23.60
2019-02-05T15:29:21.493Z,21.82
2019-02-05T15:31:54.616Z,20.40
2019-02-05T15:34:25.570Z,24.45
2019-02-05T15:36:55.843Z,21.68
2019-02-05T15:39:26.028Z,20.60
2019-02-05T15:41:56.693Z,19.55
2019-02-05T15:44:26.893Z,26.00
2019-02-05T15:46:57.033Z,18.60
2019-02-05T15:49:27.265Z,19.52
2019-02-05T15:51:58.521Z,18.73
2019-02-05T15:54:28.724Z,19.77
2019-02-05T15:56:58.945Z,21.57
2019-02-05T15:59:29.119Z,21.77
2019-02-05T16:02:06.454Z,20.02
2019-02-05T16:04:32.112Z,17.75
2019-02-05T16:07:02.230Z,20.50
2019-02-05T16:09:32.733Z,23.65
2019-02-05T16:12:02.923Z,19.30
2019-02-05T16:14:33.329Z,19.25
2019-02-05T16:17:03.495Z,20.62
2019-02-05T16:19:33.675Z,17.70
2019-02-05T16:22:03.905Z,20.60
2019-02-05T16:24:34.054Z,21.50
2019-02-05T16:27:05.260Z,22.13
2019-02-05T16:29:35.475Z,19.05
2019-02-05T16:32:17.030Z,19.00
2019-02-05T16:34:37.426Z,20.50
2019-02-05T16:37:07.853Z,26.48
2019-02-05T16:39:38.033Z,21.33
2019-02-05T16:42:08.178Z,24.18
2019-02-05T16:44:38.505Z,23.42
2019-02-05T16:47:08.697Z,18.73
2019-02-05T16:49:38.879Z,25.23
2019-02-05T16:52:09.095Z,20.37
2019-02-05T16:54:39.365Z,20.55
2019-02-05T16:57:09.499Z,23.70
2019-02-05T16:59:39.684Z,26.87
2019-02-05T17:02:09.833Z,26.35
2019-02-05T17:04:42.913Z,24.45
2019-02-05T17:07:13.171Z,26.00
2019-02-05T17:09:43.369Z,27.62
2019-02-05T17:12:13.534Z,22.50
2019-02-05T17:14:43.725Z,24.50
2019-02-05T17:17:13.893Z,24.30
2019-02-05T17:19:44.448Z,27.62
2019-02-05T17:22:14.647Z,29.45
2019-02-05T17:24:44.961Z,29.52
2019-02-05T17:27:15.086Z,28.77
2019-02-05T17:29:45.267Z,23.30
2019-02-05T17:32:15.449Z,27.37
2019-02-05T17:34:45.681Z,27.73
2019-02-05T17:37:15.867Z,25.57
2019-02-05T17:39:46.065Z,24.72
2019-02-05T17:42:16.210Z,23.10
2019-02-05T17:44:46.527Z,24.25
2019-02-05T17:47:16.970Z,27.50
2019-02-05T17:49:47.181Z,25.32
2019-02-05T17:52:17.333Z,26.40
2019-02-05T17:54:47.579Z,26.57
2019-02-05T17:57:17.766Z,26.17
2019-02-05T17:59:48.047Z,30.55
2019-02-05T18:02:18.216Z,29.92
2019-02-05T18:04:48.490Z,29.90
2019-02-05T18:07:18.650Z,29.00
2019-02-05T18:09:48.883Z,26.80
2019-02-05T18:12:19.091Z,30.52
2019-02-05T18:14:49.601Z,31.25
2019-02-05T18:17:19.789Z,29.57
2019-02-05T18:19:50.266Z,32.73
2019-02-05T18:22:20.607Z,31.27
2019-02-05T18:24:50.866Z,30.90
2019-02-05T18:27:21.079Z,28.20
2019-02-05T18:29:51.267Z,30.77
2019-02-05T18:32:21.447Z,35.43
2019-02-05T18:34:51.607Z,31.52
2019-02-05T18:37:21.850Z,35.30
2019-02-05T18:39:52.068Z,29.92
2019-02-05T18:42:22.561Z,32.10
2019-02-05T18:44:52.757Z,32.15
2019-02-05T18:47:22.928Z,29.02
2019-02-05T18:49:53.352Z,30.88
2019-02-05T18:52:23.534Z,31.75
2019-02-05T18:54:53.863Z,33.42
2019-02-05T18:57:24.337Z,31.52
2019-02-05T18:59:54.526Z,30.95
2019-02-05T19:02:24.733Z,32.95
2019-02-05T19:04:54.932Z,36.28
2019-02-05T19:07:25.082Z,31.55
2019-02-05T19:09:55.317Z,32.95
2019-02-05T19:12:25.492Z,30.45
2019-02-05T19:14:55.687Z,33.65
2019-02-05T19:17:25.978Z,28.67
2019-02-05T19:19:56.175Z,24.50
2019-02-05T19:22:26.331Z,30.43
2019-02-05T19:25:00.780Z,30.40
2019-02-05T19:27:30.888Z,29.05
2019-02-05T19:30:01.138Z,27.67
2019-02-05T19:32:31.387Z,29.80
2019-02-05T19:35:01.667Z,27.30
2019-02-05T19:37:31.777Z,25.02
2019-02-05T19:40:01.985Z,27.00
2019-02-05T19:42:32.114Z,21.37
2019-02-05T19:45:17.851Z,22.55
2019-02-05T19:47:48.045Z,20.82
2019-02-05T19:50:18.244Z,24.35
2019-02-05T19:52:48.391Z,25.30
2019-02-05T19:55:18.678Z,22.20
2019-02-05T19:57:49.144Z,22.10
2019-02-05T20:00:19.476Z,21.97
2019-02-05T20:02:49.596Z,24.30
2019-02-05T20:05:19.878Z,24.30
2019-02-05T20:07:50.491Z,20.48
2019-02-05T20:10:20.748Z,26.17
2019-02-05T20:12:50.918Z,22.67
2019-02-05T20:15:21.169Z,24.15
2019-02-05T20:17:51.409Z,24.15
2019-02-05T20:20:21.638Z,26.00
2019-02-05T20:22:52.123Z,26.97
2019-02-05T20:25:22.308Z,26.10
2019-02-05T20:27:52.535Z,25.82
2019-02-05T20:30:22.964Z,24.05
2019-02-05T20:32:53.208Z,21.25
2019-02-05T20:35:23.387Z,24.40
2019-02-05T20:37:53.878Z,24.35
2019-02-05T20:40:24.066Z,23.73
2019-02-05T20:42:55.949Z,24.37
2019-02-05T20:45:26.177Z,27.98
2019-02-05T20:47:56.386Z,27.10
2019-02-05T20:50:26.617Z,26.55
2019-02-05T20:52:57.359Z,24.30
2019-02-05T20:55:27.950Z,26.57
2019-02-05T20:57:58.247Z,26.33
2019-02-05T21:00:28.499Z,30.35
2019-02-05T21:02:58.679Z,27.10
2019-02-05T21:05:28.881Z,28.77
2019-02-05T21:07:59.409Z,27.40
2019-02-05T21:10:29.591Z,26.55
2019-02-05T21:12:59.734Z,27.13
2019-02-05T21:15:29.911Z,30.00
2019-02-05T21:18:00.080Z,31.15
2019-02-05T21:20:34.047Z,34.33
2019-02-05T21:23:02.708Z,27.13
2019-02-05T21:25:32.891Z,34.85
2019-02-05T21:28:03.048Z,31.48
2019-02-05T21:30:33.225Z,34.95
2019-02-05T21:33:03.362Z,32.23
2019-02-05T21:35:33.528Z,34.38
2019-02-05T21:38:03.881Z,34.33
2019-02-05T21:40:34.057Z,37.65
2019-02-05T21:43:04.183Z,34.65
2019-02-05T21:45:34.420Z,36.90
2019-02-05T21:48:04.541Z,33.70
2019-02-05T21:50:34.729Z,38.73
2019-02-05T21:53:04.884Z,37.25
2019-02-05T21:55:35.026Z,45.43
2019-02-05T21:58:05.155Z,41.68
2019-02-05T22:00:35.328Z,37.63
2019-02-05T22:03:05.474Z,40.80
2019-02-05T22:05:35.660Z,38.10
2019-02-05T22:08:08.622Z,28.83
2019-02-05T22:10:37.844Z,36.17
2019-02-05T22:13:07.969Z,33.98
2019-02-05T22:15:38.274Z,33.63
2019-02-05T22:18:08.437Z,33.65
2019-02-05T22:20:38.599Z,36.00
2019-02-05T22:23:09.051Z,37.42
2019-02-05T22:25:39.262Z,33.75
2019-02-05T22:28:09.360Z,34.60
2019-02-05T22:30:39.760Z,33.13
2019-02-05T22:33:09.889Z,34.98
2019-02-05T22:35:41.186Z,38.55
2019-02-05T22:38:11.334Z,34.30
2019-02-05T22:40:41.517Z,32.05
2019-02-05T22:43:11.924Z,40.38
2019-02-05T22:45:42.096Z,35.35
2019-02-05T22:48:12.244Z,33.92
2019-02-05T22:50:42.479Z,32.23
2019-02-05T22:53:12.679Z,36.17
2019-02-05T22:55:42.852Z,34.27
2019-02-05T22:58:13.029Z,34.18
2019-02-05T23:01:21.600Z,28.65
2019-02-05T23:04:20.308Z,33.85
2019-02-05T23:07:09.888Z,27.82
2019-02-05T23:09:57.409Z,27.67
2019-02-05T23:12:31.647Z,30.27
2019-02-05T23:15:18.920Z,28.73
2019-02-05T23:17:49.131Z,28.38
2019-02-05T23:20:21.251Z,32.08
2019-02-05T23:22:51.787Z,29.92
2019-02-05T23:25:21.941Z,33.53
2019-02-05T23:27:52.079Z,28.20
2019-02-05T23:30:24.611Z,30.10
2019-02-05T23:32:54.772Z,27.70
2019-02-05T23:35:24.899Z,27.27
2019-02-05T23:37:55.057Z,24.85
2019-02-05T23:40:25.175Z,29.18
2019-02-05T23:42:55.335Z,29.02
2019-02-05T23:45:25.449Z,33.83
2019-02-05T23:47:55.584Z,26.37
2019-02-05T23:50:25.988Z,30.80
2019-02-05T23:52:56.117Z,29.10
2019-02-05T23:55:26.233Z,27.98
2019-02-05T23:57:56.381Z,29.42
